地図

経路データ

SID SEASON NUMBER BASIN SUBBASIN NAME ISO_TIME NATURE LAT LON WMO_WIND WMO_PRES WMO_AGENCY TRACK_TYPE DIST2LAND LANDFALL IFLAG USA_AGENCY USA_ATCF_ID USA_LAT USA_LON USA_RECORD USA_STATUS USA_WIND USA_PRES USA_SSHS USA_R34_NE USA_R34_SE USA_R34_SW USA_R34_NW USA_R50_NE USA_R50_SE USA_R50_SW USA_R50_NW USA_R64_NE USA_R64_SE USA_R64_SW USA_R64_NW USA_POCI USA_ROCI USA_RMW USA_EYE TOKYO_LAT TOKYO_LON TOKYO_GRADE TOKYO_WIND TOKYO_PRES TOKYO_R50_DIR TOKYO_R50_LONG TOKYO_R50_SHORT TOKYO_R30_DIR TOKYO_R30_LONG TOKYO_R30_SHORT TOKYO_LAND CMA_LAT CMA_LON CMA_CAT CMA_WIND CMA_PRES HKO_LAT HKO_LON HKO_CAT HKO_WIND HKO_PRES NEWDELHI_LAT NEWDELHI_LON NEWDELHI_GRADE NEWDELHI_WIND NEWDELHI_PRES NEWDELHI_CI NEWDELHI_DP NEWDELHI_POCI REUNION_LAT REUNION_LON REUNION_TYPE REUNION_WIND REUNION_PRES REUNION_TNUM REUNION_CI REUNION_RMW REUNION_R34_NE REUNION_R34_SE REUNION_R34_SW REUNION_R34_NW REUNION_R50_NE REUNION_R50_SE REUNION_R50_SW REUNION_R50_NW REUNION_R64_NE REUNION_R64_SE REUNION_R64_SW REUNION_R64_NW BOM_LAT BOM_LON BOM_TYPE BOM_WIND BOM_PRES BOM_TNUM BOM_CI BOM_RMW BOM_R34_NE BOM_R34_SE BOM_R34_SW BOM_R34_NW BOM_R50_NE BOM_R50_SE BOM_R50_SW BOM_R50_NW BOM_R64_NE BOM_R64_SE BOM_R64_SW BOM_R64_NW BOM_ROCI BOM_POCI BOM_EYE BOM_POS_METHOD BOM_PRES_METHOD NADI_LAT NADI_LON NADI_CAT NADI_WIND NADI_PRES WELLINGTON_LAT WELLINGTON_LON WELLINGTON_WIND WELLINGTON_PRES DS824_LAT DS824_LON DS824_STAGE DS824_WIND DS824_PRES TD9636_LAT TD9636_LON TD9636_STAGE TD9636_WIND TD9636_PRES TD9635_LAT TD9635_LON TD9635_WIND TD9635_PRES TD9635_ROCI NEUMANN_LAT NEUMANN_LON NEUMANN_CLASS NEUMANN_WIND NEUMANN_PRES MLC_LAT MLC_LON MLC_CLASS MLC_WIND MLC_PRES USA_GUST BOM_GUST BOM_GUST_PER REUNION_GUST REUNION_GUST_PER USA_SEAHGT USA_SEARAD_NE USA_SEARAD_SE USA_SEARAD_SW USA_SEARAD_NW STORM_SPEED STORM_DIR
1989243N12339 1989 93 NA NA GABRIELLE 1989-08-30 12:00:00 TS 11.6000 -21.0000 25 1011 hurdat_atl main 465 465 O_____________ hurdat_atl AL101989 11.6000 -21.0000 TD 25 1011 -1 20 260
1989243N12339 1989 93 NA NA GABRIELLE 1989-08-30 15:00:00 TS 11.4233 -22.0179 main 577 577 P_____________ AL101989 11.4233 -22.0179 TD 27 1010 -1 20 261
1989243N12339 1989 93 NA NA GABRIELLE 1989-08-30 18:00:00 TS 11.3000 -23.0000 30 1009 hurdat_atl main 686 686 O_____________ hurdat_atl AL101989 11.3000 -23.0000 TD 30 1009 -1 19 265
1989243N12339 1989 93 NA NA GABRIELLE 1989-08-30 21:00:00 TS 11.2697 -23.9223 main 782 782 P_____________ AL101989 11.2697 -23.9223 TD 32 1007 -1 18 270
1989243N12339 1989 93 NA NA GABRIELLE 1989-08-31 00:00:00 TS 11.3000 -24.8000 35 1005 hurdat_atl main 878 878 O_____________ hurdat_atl AL101989 11.3000 -24.8000 TS 35 1005 0 17 272
1989243N12339 1989 93 NA NA GABRIELLE 1989-08-31 03:00:00 TS 11.3421 -25.6500 main 956 956 P_____________ AL101989 11.3421 -25.6500 TS 35 1005 0 17 273
1989243N12339 1989 93 NA NA GABRIELLE 1989-08-31 06:00:00 TS 11.4000 -26.5000 35 1005 hurdat_atl main 1042 1042 O_____________ hurdat_atl AL101989 11.4000 -26.5000 TS 35 1005 0 17 274
1989243N12339 1989 93 NA NA GABRIELLE 1989-08-31 09:00:00 TS 11.4574 -27.4000 main 1130 1130 P_____________ AL101989 11.4574 -27.4000 TS 40 1002 0 18 273
1989243N12339 1989 93 NA NA GABRIELLE 1989-08-31 12:00:00 TS 11.5000 -28.3000 45 1000 hurdat_atl main 1223 1223 O_____________ hurdat_atl AL101989 11.5000 -28.3000 TS 45 1000 0 17 272
1989243N12339 1989 93 NA NA GABRIELLE 1989-08-31 15:00:00 TS 11.5072 -29.1576 main 1317 1317 P_____________ AL101989 11.5072 -29.1576 TS 50 997 0 17 270
1989243N12339 1989 93 NA NA GABRIELLE 1989-08-31 18:00:00 TS 11.5000 -30.0000 55 994 hurdat_atl main 1400 1400 O_____________ hurdat_atl AL101989 11.5000 -30.0000 TS 55 994 0 17 269
1989243N12339 1989 93 NA NA GABRIELLE 1989-08-31 21:00:00 TS 11.4773 -30.8502 main 1495 1495 P_____________ AL101989 11.4773 -30.8502 TS 60 990 0 17 270
1989243N12339 1989 93 NA NA GABRIELLE 1989-09-01 00:00:00 TS 11.5000 -31.7000 65 987 hurdat_atl main 1579 1579 O_____________ hurdat_atl AL101989 11.5000 -31.7000 HU 65 987 1 17 275
1989243N12339 1989 93 NA NA GABRIELLE 1989-09-01 03:00:00 TS 11.6123 -32.5500 main 1671 1671 P_____________ AL101989 11.6123 -32.5500 HU 65 987 1 17 280
1989243N12339 1989 93 NA NA GABRIELLE 1989-09-01 06:00:00 TS 11.8000 -33.4000 65 987 hurdat_atl main 1751 1751 O_____________ hurdat_atl AL101989 11.8000 -33.4000 HU 65 987 1 17 284
1989243N12339 1989 93 NA NA GABRIELLE 1989-09-01 09:00:00 TS 12.0347 -34.2500 main 1776 1776 P_____________ AL101989 12.0347 -34.2500 HU 65 987 1 17 287
1989243N12339 1989 93 NA NA GABRIELLE 1989-09-01 12:00:00 TS 12.3000 -35.1000 65 987 hurdat_atl main 1780 1776 O_____________ hurdat_atl AL101989 12.3000 -35.1000 HU 65 987 1 17 287
1989243N12339 1989 93 NA NA GABRIELLE 1989-09-01 15:00:00 TS 12.5422 -35.9428 main 1778 1778 P_____________ AL101989 12.5422 -35.9428 HU 65 987 1 17 287
1989243N12339 1989 93 NA NA GABRIELLE 1989-09-01 18:00:00 TS 12.8000 -36.8000 65 987 hurdat_atl main 1790 1787 O_____________ hurdat_atl AL101989 12.8000 -36.8000 HU 65 987 1 18 288
1989243N12339 1989 93 NA NA GABRIELLE 1989-09-01 21:00:00 TS 13.0998 -37.7000 main 1790 1727 P_____________ AL101989 13.0998 -37.7000 HU 70 983 1 19 289
1989243N12339 1989 93 NA NA GABRIELLE 1989-09-02 00:00:00 TS 13.4000 -38.6000 75 980 hurdat_atl main 1727 1671 O_____________ hurdat_atl AL101989 13.4000 -38.6000 HU 75 980 1 18 288
1989243N12339 1989 93 NA NA GABRIELLE 1989-09-02 03:00:00 TS 13.6571 -39.4578 main 1669 1616 P_____________ AL101989 13.6571 -39.4578 HU 77 978 1 17 287
1989243N12339 1989 93 NA NA GABRIELLE 1989-09-02 06:00:00 TS 13.9000 -40.3000 80 977 hurdat_atl main 1616 1567 O_____________ hurdat_atl AL101989 13.9000 -40.3000 HU 80 977 1 17 287
1989243N12339 1989 93 NA NA GABRIELLE 1989-09-02 09:00:00 TS 14.1571 -41.1426 main 1575 1523 P_____________ AL101989 14.1571 -41.1426 HU 82 975 1 17 287
1989243N12339 1989 93 NA NA GABRIELLE 1989-09-02 12:00:00 TS 14.4000 -42.0000 85 974 hurdat_atl main 1523 1482 O_____________ hurdat_atl AL101989 14.4000 -42.0000 HU 85 974 2 18 285
1989243N12339 1989 93 NA NA GABRIELLE 1989-09-02 15:00:00 TS 14.6073 -42.9002 main 1476 1434 P_____________ AL101989 14.6073 -42.9002 HU 87 972 2 18 283
1989243N12339 1989 93 NA NA GABRIELLE 1989-09-02 18:00:00 TS 14.8000 -43.8000 90 970 hurdat_atl main 1434 1403 O_____________ hurdat_atl AL101989 14.8000 -43.8000 HU 90 970 2 17 283
1989243N12339 1989 93 NA NA GABRIELLE 1989-09-02 21:00:00 TS 14.9996 -44.6577 main 1397 1362 P_____________ AL101989 14.9996 -44.6577 HU 92 968 2 17 284
1989243N12339 1989 93 NA NA GABRIELLE 1989-09-03 00:00:00 TS 15.2000 -45.5000 95 966 hurdat_atl main 1362 1330 O_____________ hurdat_atl AL101989 15.2000 -45.5000 HU 95 966 2 17 283
1989243N12339 1989 93 NA NA GABRIELLE 1989-09-03 03:00:00 TS 15.3923 -46.3577 main 1328 1305 P_____________ AL101989 15.3923 -46.3577 HU 97 963 3 17 284
1989243N12339 1989 93 NA NA GABRIELLE 1989-09-03 06:00:00 TS 15.6000 -47.2000 100 960 hurdat_atl main 1305 1287 O_____________ hurdat_atl AL101989 15.6000 -47.2000 HU 100 960 3 17 286
1989243N12339 1989 93 NA NA GABRIELLE 1989-09-03 09:00:00 TS 15.8497 -48.0150 main 1287 1283 P_____________ AL101989 15.8497 -48.0150 HU 102 954 3 16 288
1989243N12339 1989 93 NA NA GABRIELLE 1989-09-03 12:00:00 TS 16.1000 -48.8000 105 948 hurdat_atl main 1285 1262 O_____________ hurdat_atl AL101989 16.1000 -48.8000 HU 105 948 3 16 286
1989243N12339 1989 93 NA NA GABRIELLE 1989-09-03 15:00:00 TS 16.2802 -49.5780 main 1268 1257 P_____________ AL101989 16.2802 -49.5780 HU 105 942 3 15 286
1989243N12339 1989 93 NA NA GABRIELLE 1989-09-03 18:00:00 TS 16.5000 -50.3000 105 937 hurdat_atl main 1260 1257 O_____________ hurdat_atl AL101989 16.5000 -50.3000 HU 105 937 3 14 292
1989243N12339 1989 93 NA NA GABRIELLE 1989-09-03 20:46:00 TS 16.8000 -50.9000 105 935 hurdat_atl main 1272 1272 O_____________ hurdat_atl AL101989 16.8000 -50.9000 P HU 105 935 3 14 297
1989243N12339 1989 93 NA NA GABRIELLE 1989-09-03 21:00:00 TS 16.8193 -50.9464 main 1272 1244 P_____________ AL101989 16.8193 -50.9464 HU 105 935 3 11 289
1989243N12339 1989 93 NA NA GABRIELLE 1989-09-04 00:00:00 TS 17.0000 -51.5000 105 937 hurdat_atl main 1244 1204 O_____________ hurdat_atl AL101989 17.0000 -51.5000 HU 105 937 3 12 288
1989243N12339 1989 93 NA NA GABRIELLE 1989-09-04 03:00:00 TS 17.1833 -52.0985 main 1204 1167 P_____________ AL101989 17.1833 -52.0985 HU 107 938 3 12 289
1989243N12339 1989 93 NA NA GABRIELLE 1989-09-04 06:00:00 TS 17.4000 -52.7000 110 940 hurdat_atl main 1167 1141 O_____________ hurdat_atl AL101989 17.4000 -52.7000 HU 110 940 3 12 294
1989243N12339 1989 93 NA NA GABRIELLE 1989-09-04 09:00:00 TS 17.6848 -53.2650 main 1141 1126 P_____________ AL101989 17.6848 -53.2650 HU 112 941 3 12 300
1989243N12339 1989 93 NA NA GABRIELLE 1989-09-04 12:00:00 TS 18.0000 -53.8000 115 942 hurdat_atl main 1126 1112 O_____________ hurdat_atl AL101989 18.0000 -53.8000 HU 115 942 4 12 301
1989243N12339 1989 93 NA NA GABRIELLE 1989-09-04 15:00:00 TS 18.2924 -54.3152 main 1115 1103 P_____________ AL101989 18.2924 -54.3152 HU 117 942 4 11 302
1989243N12339 1989 93 NA NA GABRIELLE 1989-09-04 18:00:00 TS 18.6000 -54.8000 120 942 hurdat_atl main 1107 1097 O_____________ hurdat_atl AL101989 18.6000 -54.8000 HU 120 942 4 11 306
1989243N12339 1989 93 NA NA GABRIELLE 1989-09-04 21:00:00 TS 18.9499 -55.2651 main 1086 1046 P_____________ AL101989 18.9499 -55.2651 HU 122 943 4 11 309
1989243N12339 1989 93 NA NA GABRIELLE 1989-09-05 00:00:00 TS 19.3000 -55.7000 125 944 hurdat_atl main 1046 1007 O_____________ hurdat_atl AL101989 19.3000 -55.7000 HU 125 944 4 10 309
1989243N12339 1989 93 NA NA GABRIELLE 1989-09-05 03:00:00 TS 19.5999 -56.1153 main 1007 970 P_____________ AL101989 19.5999 -56.1153 HU 125 942 4 10 309
1989243N12339 1989 93 NA NA GABRIELLE 1989-09-05 06:00:00 TS 19.9000 -56.5000 125 941 hurdat_atl main 970 943 O_____________ hurdat_atl AL101989 19.9000 -56.5000 HU 125 941 4 10 312
1989243N12339 1989 93 NA NA GABRIELLE 1989-09-05 09:00:00 TS 20.2349 -56.8651 main 934 914 P_____________ AL101989 20.2349 -56.8651 HU 125 941 4 10 317
1989243N12339 1989 93 NA NA GABRIELLE 1989-09-05 12:00:00 TS 20.6000 -57.2000 125 941 hurdat_atl main 914 892 O_____________ hurdat_atl AL101989 20.6000 -57.2000 HU 125 941 4 10 321
1989243N12339 1989 93 NA NA GABRIELLE 1989-09-05 15:00:00 TS 20.9924 -57.5151 main 896 877 P_____________ AL101989 20.9924 -57.5151 HU 125 941 4 10 325
1989243N12339 1989 93 NA NA GABRIELLE 1989-09-05 18:00:00 TS 21.4000 -57.8000 125 941 hurdat_atl main 881 870 O_____________ hurdat_atl AL101989 21.4000 -57.8000 HU 125 941 4 10 328
1989243N12339 1989 93 NA NA GABRIELLE 1989-09-05 21:00:00 TS 21.7924 -58.0577 main 870 865 P_____________ AL101989 21.7924 -58.0577 HU 125 942 4 9 330
1989243N12339 1989 93 NA NA GABRIELLE 1989-09-06 00:00:00 TS 22.2000 -58.3000 125 944 hurdat_atl main 871 867 O_____________ hurdat_atl AL101989 22.2000 -58.3000 HU 125 944 4 10 332
1989243N12339 1989 93 NA NA GABRIELLE 1989-09-06 03:00:00 TS 22.6425 -58.5501 main 866 866 P_____________ AL101989 22.6425 -58.5501 HU 122 943 4 10 333
1989243N12339 1989 93 NA NA GABRIELLE 1989-09-06 06:00:00 TS 23.1000 -58.8000 120 942 hurdat_atl main 880 878 O_____________ hurdat_atl AL101989 23.1000 -58.8000 HU 120 942 4 10 333
1989243N12339 1989 93 NA NA GABRIELLE 1989-09-06 09:00:00 TS 23.5350 -59.0503 main 883 883 P_____________ AL101989 23.5350 -59.0503 HU 120 943 4 10 333
1989243N12339 1989 93 NA NA GABRIELLE 1989-09-06 12:00:00 TS 24.0000 -59.3000 120 944 hurdat_atl main 904 904 O_____________ hurdat_atl AL101989 24.0000 -59.3000 HU 120 944 4 11 334
1989243N12339 1989 93 NA NA GABRIELLE 1989-09-06 15:00:00 TS 24.5201 -59.5724 main 921 921 P_____________ AL101989 24.5201 -59.5724 HU 120 944 4 12 338
1989243N12339 1989 93 NA NA GABRIELLE 1989-09-06 18:00:00 TS 25.1000 -59.8000 120 944 hurdat_atl main 958 958 O_____________ hurdat_atl AL101989 25.1000 -59.8000 HU 120 944 4 13 345
1989243N12339 1989 93 NA NA GABRIELLE 1989-09-06 21:00:00 TS 25.7349 -59.9376 main 1005 1005 P_____________ AL101989 25.7349 -59.9376 HU 120 943 4 13 352
1989243N12339 1989 93 NA NA GABRIELLE 1989-09-07 00:00:00 TS 26.4000 -60.0000 120 943 hurdat_atl main 1063 1063 O_____________ hurdat_atl AL101989 26.4000 -60.0000 HU 120 943 4 13 356
1989243N12339 1989 93 NA NA GABRIELLE 1989-09-07 03:00:00 TS 27.0500 -60.0226 main 1119 1119 P_____________ AL101989 27.0500 -60.0226 HU 112 945 3 13 1
1989243N12339 1989 93 NA NA GABRIELLE 1989-09-07 06:00:00 TS 27.7000 -60.0000 105 948 hurdat_atl main 1186 1186 O_____________ hurdat_atl AL101989 27.7000 -60.0000 HU 105 948 3 13 3
1989243N12339 1989 93 NA NA GABRIELLE 1989-09-07 09:00:00 TS 28.3350 -59.9576 main 1244 1244 P_____________ AL101989 28.3350 -59.9576 HU 100 949 3 13 4
1989243N12339 1989 93 NA NA GABRIELLE 1989-09-07 12:00:00 TS 29.0000 -59.9000 95 950 hurdat_atl main 1318 1318 O_____________ hurdat_atl AL101989 29.0000 -59.9000 HU 95 950 2 14 4
1989243N12339 1989 93 NA NA GABRIELLE 1989-09-07 15:00:00 TS 29.7275 -59.8573 main 1388 1388 P_____________ AL101989 29.7275 -59.8573 HU 95 950 2 15 3
1989243N12339 1989 93 NA NA GABRIELLE 1989-09-07 18:00:00 TS 30.5000 -59.8000 95 951 hurdat_atl main 1473 1455 O_____________ hurdat_atl AL101989 30.5000 -59.8000 HU 95 951 2 16 5
1989243N12339 1989 93 NA NA GABRIELLE 1989-09-07 21:00:00 TS 31.2925 -59.6929 main 1444 1363 P_____________ AL101989 31.2925 -59.6929 HU 95 951 2 16 6
1989243N12339 1989 93 NA NA GABRIELLE 1989-09-08 00:00:00 TS 32.1000 -59.6000 95 951 hurdat_atl main 1363 1279 O_____________ hurdat_atl AL101989 32.1000 -59.6000 HU 95 951 2 16 3
1989243N12339 1989 93 NA NA GABRIELLE 1989-09-08 03:00:00 TS 32.9150 -59.5846 main 1279 1196 P_____________ AL101989 32.9150 -59.5846 HU 92 953 2 16 0
1989243N12339 1989 93 NA NA GABRIELLE 1989-09-08 06:00:00 TS 33.7000 -59.6000 90 955 hurdat_atl main 1196 1125 O_____________ hurdat_atl AL101989 33.7000 -59.6000 HU 90 955 2 15 359
1989243N12339 1989 93 NA NA GABRIELLE 1989-09-08 09:00:00 TS 34.4225 -59.5927 main 1125 1054 P_____________ AL101989 34.4225 -59.5927 HU 87 958 2 14 0
1989243N12339 1989 93 NA NA GABRIELLE 1989-09-08 12:00:00 TS 35.1000 -59.6000 85 961 hurdat_atl main 1054 984 O_____________ hurdat_atl AL101989 35.1000 -59.6000 HU 85 961 2 14 359
1989243N12339 1989 93 NA NA GABRIELLE 1989-09-08 15:00:00 TS 35.7950 -59.6423 main 984 921 P_____________ AL101989 35.7950 -59.6423 HU 82 965 1 13 356
1989243N12339 1989 93 NA NA GABRIELLE 1989-09-08 18:00:00 TS 36.4000 -59.7000 80 970 hurdat_atl main 921 883 O_____________ hurdat_atl AL101989 36.4000 -59.7000 HU 80 970 1 10 355
1989243N12339 1989 93 NA NA GABRIELLE 1989-09-08 21:00:00 TS 36.8375 -59.7501 main 878 840 P_____________ AL101989 36.8375 -59.7501 HU 77 974 1 8 354
1989243N12339 1989 93 NA NA GABRIELLE 1989-09-09 00:00:00 TS 37.2000 -59.8000 75 979 hurdat_atl main 840 803 O_____________ hurdat_atl AL101989 37.2000 -59.8000 HU 75 979 1 8 354
1989243N12339 1989 93 NA NA GABRIELLE 1989-09-09 03:00:00 TS 37.6225 -59.8500 main 803 761 P_____________ AL101989 37.6225 -59.8500 HU 72 983 1 8 354
1989243N12339 1989 93 NA NA GABRIELLE 1989-09-09 06:00:00 TS 38.0000 -59.9000 70 987 hurdat_atl main 761 734 O_____________ hurdat_atl AL101989 38.0000 -59.9000 HU 70 987 1 7 353
1989243N12339 1989 93 NA NA GABRIELLE 1989-09-09 09:00:00 TS 38.2800 -59.9501 main 728 711 P_____________ AL101989 38.2800 -59.9501 HU 67 987 1 5 351
1989243N12339 1989 93 NA NA GABRIELLE 1989-09-09 12:00:00 TS 38.5000 -60.0000 65 988 hurdat_atl main 711 693 O_____________ hurdat_atl AL101989 38.5000 -60.0000 HU 65 988 1 4 351
1989243N12339 1989 93 NA NA GABRIELLE 1989-09-09 15:00:00 TS 38.7225 -60.0425 main 693 670 P_____________ AL101989 38.7225 -60.0425 HU 65 989 1 4 349
1989243N12339 1989 93 NA NA GABRIELLE 1989-09-09 18:00:00 TS 38.9000 -60.1000 65 990 hurdat_atl main 670 656 O_____________ hurdat_atl AL101989 38.9000 -60.1000 HU 65 990 1 3 338
1989243N12339 1989 93 NA NA GABRIELLE 1989-09-09 21:00:00 TS 39.0300 -60.2000 main 656 642 P_____________ AL101989 39.0300 -60.2000 HU 65 990 1 3 322
1989243N12339 1989 93 NA NA GABRIELLE 1989-09-10 00:00:00 TS 39.1000 -60.3000 65 990 hurdat_atl main 642 642 O_____________ hurdat_atl AL101989 39.1000 -60.3000 HU 65 990 1 1 305
1989243N12339 1989 93 NA NA GABRIELLE 1989-09-10 03:00:00 TS 39.1150 -60.3501 main 636 636 P_____________ AL101989 39.1150 -60.3501 HU 62 992 0 1 270
1989243N12339 1989 93 NA NA GABRIELLE 1989-09-10 06:00:00 TS 39.1000 -60.4000 60 994 hurdat_atl main 636 631 O_____________ hurdat_atl AL101989 39.1000 -60.4000 TS 60 994 0 1 261
1989243N12339 1989 93 NA NA GABRIELLE 1989-09-10 09:00:00 TS 39.0999 -60.4700 main 631 626 P_____________ AL101989 39.0999 -60.4700 TS 60 995 0 2 270
1989243N12339 1989 93 NA NA GABRIELLE 1989-09-10 12:00:00 TS 39.1000 -60.6000 60 996 hurdat_atl main 626 616 O_____________ hurdat_atl AL101989 39.1000 -60.6000 TS 60 996 0 3 270
1989243N12339 1989 93 NA NA GABRIELLE 1989-09-10 15:00:00 TS 39.1001 -60.8275 main 616 601 P_____________ AL101989 39.1001 -60.8275 TS 57 997 0 4 270
1989243N12339 1989 93 NA NA GABRIELLE 1989-09-10 18:00:00 TS 39.1000 -61.1000 55 998 hurdat_atl main 601 591 O_____________ hurdat_atl AL101989 39.1000 -61.1000 TS 55 998 0 4 271
1989243N12339 1989 93 NA NA GABRIELLE 1989-09-10 21:00:00 TS 39.1075 -61.3574 main 587 578 P_____________ AL101989 39.1075 -61.3574 TS 52 999 0 4 270
1989243N12339 1989 93 NA NA GABRIELLE 1989-09-11 00:00:00 TS 39.1000 -61.6000 50 1000 hurdat_atl main 578 569 O_____________ hurdat_atl AL101989 39.1000 -61.6000 TS 50 1000 0 4 257
1989243N12339 1989 93 NA NA GABRIELLE 1989-09-11 03:00:00 TS 39.0200 -61.8377 main 579 571 P_____________ AL101989 39.0200 -61.8377 TS 47 1001 0 3 252
1989243N12339 1989 93 NA NA GABRIELLE 1989-09-11 06:00:00 TS 39.0000 -62.0000 45 1002 hurdat_atl main 571 557 O_____________ hurdat_atl AL101989 39.0000 -62.0000 TS 45 1002 0 2 305
1989243N12339 1989 93 NA NA GABRIELLE 1989-09-11 09:00:00 TS 39.1548 -62.0820 main 547 532 P_____________ AL101989 39.1548 -62.0820 TS 42 1002 0 4 0
1989243N12339 1989 93 NA NA GABRIELLE 1989-09-11 12:00:00 TS 39.4000 -62.0000 40 1003 hurdat_atl main 532 521 O_____________ hurdat_atl AL101989 39.4000 -62.0000 TS 40 1003 0 6 30
1989243N12339 1989 93 NA NA GABRIELLE 1989-09-11 15:00:00 TS 39.6577 -61.7031 main 517 512 P_____________ AL101989 39.6577 -61.7031 TS 37 1004 0 7 47
1989243N12339 1989 93 NA NA GABRIELLE 1989-09-11 18:00:00 TS 39.9000 -61.3000 35 1005 hurdat_atl main 519 516 O_____________ hurdat_atl AL101989 39.9000 -61.3000 TS 35 1005 0 7 53
1989243N12339 1989 93 NA NA GABRIELLE 1989-09-11 21:00:00 TS 40.0797 -60.9648 main 517 517 P_____________ AL101989 40.0797 -60.9648 TS 35 1005 0 6 61
1989243N12339 1989 93 NA NA GABRIELLE 1989-09-12 00:00:00 TS 40.2000 -60.6000 35 1005 hurdat_atl main 527 527 O_____________ hurdat_atl AL101989 40.2000 -60.6000 TS 35 1005 0 6 74
1989243N12339 1989 93 NA NA GABRIELLE 1989-09-12 03:00:00 TS 40.2574 -60.1720 main 533 533 P_____________ AL101989 40.2574 -60.1720 TS 35 1005 0 7 82
1989243N12339 1989 93 NA NA GABRIELLE 1989-09-12 06:00:00 TS 40.3000 -59.7000 35 1006 hurdat_atl main 550 550 O_____________ hurdat_atl AL101989 40.3000 -59.7000 TS 35 1006 0 7 81
1989243N12339 1989 93 NA NA GABRIELLE 1989-09-12 09:00:00 TS 40.3692 -59.2516 main 553 552 P_____________ AL101989 40.3692 -59.2516 TS 32 1006 -1 8 75
1989243N12339 1989 93 NA NA GABRIELLE 1989-09-12 12:00:00 TS 40.5000 -58.7000 30 1007 hurdat_atl main 557 553 O_____________ hurdat_atl AL101989 40.5000 -58.7000 TD 30 1007 -1 10 71
1989243N12339 1989 93 NA NA GABRIELLE 1989-09-12 15:00:00 TS 40.7050 -57.9594 main 559 557 P_____________ AL101989 40.7050 -57.9594 TD 30 1007 -1 13 68
1989243N12339 1989 93 NA NA GABRIELLE 1989-09-12 18:00:00 TS 41.0000 -57.1000 30 1008 hurdat_atl main 567 563 O_____________ hurdat_atl AL101989 41.0000 -57.1000 TD 30 1008 -1 15 63
1989243N12339 1989 93 NA NA GABRIELLE 1989-09-12 21:00:00 TS 41.3697 -56.2147 main 575 552 P_____________ AL101989 41.3697 -56.2147 TD 30 1008 -1 16 59
1989243N12339 1989 93 NA NA GABRIELLE 1989-09-13 00:00:00 TS 41.8000 -55.3000 30 1009 hurdat_atl main 550 494 O_____________ hurdat_atl AL101989 41.8000 -55.3000 TD 30 1009 -1 16 57
1989243N12339 1989 93 NA NA GABRIELLE 1989-09-13 03:00:00 TS 42.2265 -54.4130 main 493 433 P_____________ AL101989 42.2265 -54.4130 TD 30 1009 -1 16 56
1989243N12339 1989 93 NA NA GABRIELLE 1989-09-13 06:00:00 TS 42.7000 -53.5000 30 1010 hurdat_atl main 433 380 O_____________ hurdat_atl AL101989 42.7000 -53.5000 TD 30 1010 -1 17 54
1989243N12339 1989 93 NA NA GABRIELLE 1989-09-13 09:00:00 TS 43.2346 -52.5244 main 381 335 P_____________ AL101989 43.2346 -52.5244 TD 30 1010 -1 18 53
1989243N12339 1989 93 NA NA GABRIELLE 1989-09-13 12:00:00 TS 43.8000 -51.5000 30 1010 hurdat_atl main 338 O_____________ hurdat_atl AL101989 43.8000 -51.5000 TD 30 1010 -1 19 53

IBTrACS Databaseについて

本データベースは、米国NOAAが公開する1842年以降の世界の熱帯低気圧のベストトラックデータアーカイブInternational Best Track Archive for Climate Stewardship (IBTrACS)を、ウェブで閲覧しやすい形式に変換したものです。

最終更新日:2021-12-06